sensor_id;sensor_type;location;lat;lon;timestamp;pressure;altitude;pressure_sealevel;temperature;humidity
61742;BME280;47650;49.848;9.620;2022-09-09T00:00:13;99212.09;;;15.03;72.97
61742;BME280;47650;49.848;9.620;2022-09-09T00:02:42;99218.25;;;15.18;73.00
61742;BME280;47650;49.848;9.620;2022-09-09T00:05:26;99215.78;;;15.32;72.99
61742;BME280;47650;49.848;9.620;2022-09-09T00:07:55;99216.31;;;15.42;72.72
61742;BME280;47650;49.848;9.620;2022-09-09T00:10:26;99223.84;;;15.53;72.10
61742;BME280;47650;49.848;9.620;2022-09-09T00:21:06;99212.50;;;15.51;73.11
61742;BME280;47650;49.848;9.620;2022-09-09T00:23:34;99201.63;;;15.53;73.65
61742;BME280;47650;49.848;9.620;2022-09-09T00:29:00;99190.88;;;15.46;73.91
61742;BME280;47650;49.848;9.620;2022-09-09T00:31:30;99186.06;;;15.56;74.18
61742;BME280;47650;49.848;9.620;2022-09-09T00:34:04;99183.19;;;15.58;74.35
61742;BME280;47650;49.848;9.620;2022-09-09T00:36:37;99188.84;;;15.48;74.01
61742;BME280;47650;49.848;9.620;2022-09-09T00:39:04;99180.00;;;15.48;74.25
61742;BME280;47650;49.848;9.620;2022-09-09T00:41:59;99173.75;;;15.40;74.42
61742;BME280;47650;49.848;9.620;2022-09-09T00:44:33;99170.44;;;15.38;74.41
61742;BME280;47650;49.848;9.620;2022-09-09T00:47:26;99183.72;;;15.32;74.54
61742;BME280;47650;49.848;9.620;2022-09-09T00:50:22;99169.66;;;15.23;74.66
61742;BME280;47650;49.848;9.620;2022-09-09T00:55:55;99178.56;;;15.15;74.59
61742;BME280;47650;49.848;9.620;2022-09-09T00:58:24;99153.66;;;14.78;74.44
61742;BME280;47650;49.848;9.620;2022-09-09T01:01:10;99184.94;;;14.99;74.62
61742;BME280;47650;49.848;9.620;2022-09-09T01:03:49;99185.69;;;14.93;74.51
61742;BME280;47650;49.848;9.620;2022-09-09T01:06:29;99181.88;;;14.88;74.65
61742;BME280;47650;49.848;9.620;2022-09-09T01:12:03;99195.88;;;14.90;75.11
61742;BME280;47650;49.848;9.620;2022-09-09T01:17:31;99194.78;;;14.99;74.89
61742;BME280;47650;49.848;9.620;2022-09-09T01:20:15;99183.25;;;14.98;74.80
61742;BME280;47650;49.848;9.620;2022-09-09T01:28:11;99185.19;;;14.90;74.27
61742;BME280;47650;49.848;9.620;2022-09-09T01:30:40;99183.91;;;14.85;74.42
61742;BME280;47650;49.848;9.620;2022-09-09T01:33:13;99179.34;;;14.79;74.88
61742;BME280;47650;49.848;9.620;2022-09-09T01:35:52;99183.63;;;14.80;74.93
61742;BME280;47650;49.848;9.620;2022-09-09T01:38:24;99182.25;;;14.84;75.18
61742;BME280;47650;49.848;9.620;2022-09-09T01:40:50;99187.41;;;14.86;74.93
61742;BME280;47650;49.848;9.620;2022-09-09T01:43:19;99183.91;;;14.85;74.70
61742;BME280;47650;49.848;9.620;2022-09-09T01:45:46;99188.91;;;14.89;74.81
61742;BME280;47650;49.848;9.620;2022-09-09T01:48:23;99179.84;;;14.90;74.91
61742;BME280;47650;49.848;9.620;2022-09-09T01:50:49;99187.03;;;14.89;74.75
61742;BME280;47650;49.848;9.620;2022-09-09T01:53:17;99190.09;;;15.01;74.82
61742;BME280;47650;49.848;9.620;2022-09-09T01:55:58;99187.53;;;15.08;74.68
61742;BME280;47650;49.848;9.620;2022-09-09T02:03:38;99193.38;;;15.33;74.23
61742;BME280;47650;49.848;9.620;2022-09-09T02:11:11;99181.94;;;15.54;73.57
61742;BME280;47650;49.848;9.620;2022-09-09T02:13:39;99162.53;;;15.45;73.01
61742;BME280;47650;49.848;9.620;2022-09-09T02:16:08;99161.47;;;15.61;73.26
61742;BME280;47650;49.848;9.620;2022-09-09T02:19:14;99169.84;;;15.58;72.98
61742;BME280;47650;49.848;9.620;2022-09-09T02:21:43;99176.09;;;15.14;74.57
61742;BME280;47650;49.848;9.620;2022-09-09T02:24:12;99170.00;;;15.35;74.86
61742;BME280;47650;49.848;9.620;2022-09-09T02:26:42;99172.53;;;15.43;74.57
61742;BME280;47650;49.848;9.620;2022-09-09T02:29:22;99171.63;;;15.51;74.54
61742;BME280;47650;49.848;9.620;2022-09-09T02:31:50;99177.41;;;15.54;74.52
61742;BME280;47650;49.848;9.620;2022-09-09T02:34:22;99184.78;;;15.52;73.81
61742;BME280;47650;49.848;9.620;2022-09-09T02:36:51;99190.50;;;15.49;73.94
61742;BME280;47650;49.848;9.620;2022-09-09T02:39:20;99191.13;;;15.51;73.62
61742;BME280;47650;49.848;9.620;2022-09-09T02:41:45;99180.19;;;15.46;73.59
61742;BME280;47650;49.848;9.620;2022-09-09T02:44:16;99192.81;;;15.52;73.70
61742;BME280;47650;49.848;9.620;2022-09-09T02:47:00;99184.97;;;15.51;73.46
61742;BME280;47650;49.848;9.620;2022-09-09T02:49:43;99171.91;;;15.41;73.09
61742;BME280;47650;49.848;9.620;2022-09-09T02:52:27;99182.03;;;15.46;73.22
61742;BME280;47650;49.848;9.620;2022-09-09T02:54:59;99126.19;;;15.14;73.25
61742;BME280;47650;49.848;9.620;2022-09-09T02:57:28;99182.13;;;15.37;72.99
61742;BME280;47650;49.848;9.620;2022-09-09T02:59:58;99174.13;;;15.22;73.86
61742;BME280;47650;49.848;9.620;2022-09-09T03:02:24;99179.28;;;15.24;73.81
61742;BME280;47650;49.848;9.620;2022-09-09T03:04:50;99176.75;;;15.16;73.39
61742;BME280;47650;49.848;9.620;2022-09-09T03:07:19;99186.56;;;15.15;73.73
61742;BME280;47650;49.848;9.620;2022-09-09T03:09:45;99178.69;;;15.07;73.51
61742;BME280;47650;49.848;9.620;2022-09-09T03:12:11;99186.69;;;15.07;73.80
61742;BME280;47650;49.848;9.620;2022-09-09T03:14:37;99194.03;;;15.05;73.91
61742;BME280;47650;49.848;9.620;2022-09-09T03:17:09;99192.41;;;15.04;73.88
61742;BME280;47650;49.848;9.620;2022-09-09T03:19:35;99184.03;;;15.07;73.85
61742;BME280;47650;49.848;9.620;2022-09-09T03:22:01;99189.81;;;15.11;73.71
61742;BME280;47650;49.848;9.620;2022-09-09T03:24:26;99154.94;;;14.97;73.95
61742;BME280;47650;49.848;9.620;2022-09-09T03:26:51;99177.19;;;15.19;73.89
61742;BME280;47650;49.848;9.620;2022-09-09T03:29:17;99167.53;;;15.18;73.62
61742;BME280;47650;49.848;9.620;2022-09-09T03:31:44;99176.72;;;15.31;73.57
61742;BME280;47650;49.848;9.620;2022-09-09T03:34:10;99142.84;;;15.16;73.46
61742;BME280;47650;49.848;9.620;2022-09-09T03:36:37;99158.19;;;15.29;73.30
61742;BME280;47650;49.848;9.620;2022-09-09T03:39:03;99174.66;;;15.33;72.90
61742;BME280;47650;49.848;9.620;2022-09-09T03:41:29;99176.44;;;15.26;72.55
61742;BME280;47650;49.848;9.620;2022-09-09T03:43:54;99157.66;;;15.19;72.69
61742;BME280;47650;49.848;9.620;2022-09-09T03:46:23;99174.22;;;15.29;73.21
61742;BME280;47650;49.848;9.620;2022-09-09T03:48:48;99143.66;;;15.17;73.51
61742;BME280;47650;49.848;9.620;2022-09-09T03:51:14;99149.47;;;15.20;73.29
61742;BME280;47650;49.848;9.620;2022-09-09T03:53:41;99142.22;;;15.14;73.08
61742;BME280;47650;49.848;9.620;2022-09-09T03:56:07;99145.44;;;15.10;72.98
61742;BME280;47650;49.848;9.620;2022-09-09T03:58:36;99163.44;;;15.22;73.22
61742;BME280;47650;49.848;9.620;2022-09-09T04:01:09;99151.31;;;15.20;73.38
61742;BME280;47650;49.848;9.620;2022-09-09T04:03:36;99167.16;;;15.21;73.39
61742;BME280;47650;49.848;9.620;2022-09-09T04:06:03;99166.13;;;15.22;73.56
61742;BME280;47650;49.848;9.620;2022-09-09T04:08:29;99156.84;;;15.18;73.43
61742;BME280;47650;49.848;9.620;2022-09-09T04:10:57;99127.41;;;14.97;73.54
61742;BME280;47650;49.848;9.620;2022-09-09T04:13:23;99156.13;;;15.10;73.66
61742;BME280;47650;49.848;9.620;2022-09-09T04:15:56;99152.44;;;14.96;73.81
61742;BME280;47650;49.848;9.620;2022-09-09T04:18:23;99161.09;;;14.98;73.79
61742;BME280;47650;49.848;9.620;2022-09-09T04:20:55;99153.84;;;14.92;73.99
61742;BME280;47650;49.848;9.620;2022-09-09T04:23:23;99153.16;;;14.90;73.95
61742;BME280;47650;49.848;9.620;2022-09-09T04:25:53;99146.09;;;14.82;73.80
61742;BME280;47650;49.848;9.620;2022-09-09T04:28:21;99141.78;;;14.66;73.76
61742;BME280;47650;49.848;9.620;2022-09-09T04:30:47;99157.78;;;14.66;73.67
61742;BME280;47650;49.848;9.620;2022-09-09T04:33:14;99172.38;;;14.55;73.97
61742;BME280;47650;49.848;9.620;2022-09-09T04:35:43;99172.56;;;14.54;74.42
61742;BME280;47650;49.848;9.620;2022-09-09T04:38:10;99178.78;;;14.46;74.51
61742;BME280;47650;49.848;9.620;2022-09-09T04:40:35;99157.03;;;14.34;74.57
61742;BME280;47650;49.848;9.620;2022-09-09T04:43:02;99172.34;;;14.40;74.64
61742;BME280;47650;49.848;9.620;2022-09-09T04:45:30;99163.66;;;14.23;74.44
61742;BME280;47650;49.848;9.620;2022-09-09T04:47:56;99171.81;;;14.22;74.36
61742;BME280;47650;49.848;9.620;2022-09-09T04:50:21;99184.16;;;14.23;74.60
61742;BME280;47650;49.848;9.620;2022-09-09T04:52:46;99185.25;;;14.14;74.41
61742;BME280;47650;49.848;9.620;2022-09-09T04:55:12;99179.50;;;14.02;75.17
61742;BME280;47650;49.848;9.620;2022-09-09T04:57:38;99188.66;;;13.99;75.17
61742;BME280;47650;49.848;9.620;2022-09-09T05:00:04;99181.78;;;14.05;75.50
61742;BME280;47650;49.848;9.620;2022-09-09T05:02:29;99186.28;;;14.04;75.56
61742;BME280;47650;49.848;9.620;2022-09-09T05:04:55;99182.97;;;14.02;75.51
61742;BME280;47650;49.848;9.620;2022-09-09T05:07:23;99180.66;;;13.99;75.13
61742;BME280;47650;49.848;9.620;2022-09-09T05:09:49;99182.97;;;14.02;75.29
61742;BME280;47650;49.848;9.620;2022-09-09T05:12:16;99177.41;;;13.89;75.16
61742;BME280;47650;49.848;9.620;2022-09-09T05:14:43;99184.69;;;13.95;75.18
61742;BME280;47650;49.848;9.620;2022-09-09T05:17:08;99200.94;;;14.08;75.39
61742;BME280;47650;49.848;9.620;2022-09-09T05:19:34;99204.53;;;14.16;75.22
61742;BME280;47650;49.848;9.620;2022-09-09T05:22:00;99194.69;;;14.16;75.25
61742;BME280;47650;49.848;9.620;2022-09-09T05:24:27;99197.97;;;14.26;75.24
61742;BME280;47650;49.848;9.620;2022-09-09T05:26:52;99202.75;;;14.31;75.14
61742;BME280;47650;49.848;9.620;2022-09-09T05:29:18;99198.72;;;14.35;74.94
61742;BME280;47650;49.848;9.620;2022-09-09T05:31:45;99190.72;;;14.35;75.13
61742;BME280;47650;49.848;9.620;2022-09-09T05:34:11;99207.22;;;14.54;75.00
61742;BME280;47650;49.848;9.620;2022-09-09T05:36:38;99215.16;;;14.62;74.86
61742;BME280;47650;49.848;9.620;2022-09-09T05:39:04;99204.41;;;14.70;74.62
61742;BME280;47650;49.848;9.620;2022-09-09T05:41:29;99207.94;;;14.85;74.57
61742;BME280;47650;49.848;9.620;2022-09-09T05:43:56;99216.50;;;14.96;74.71
61742;BME280;47650;49.848;9.620;2022-09-09T05:46:23;99216.59;;;15.02;74.25
61742;BME280;47650;49.848;9.620;2022-09-09T05:48:51;99218.34;;;15.10;73.82
61742;BME280;47650;49.848;9.620;2022-09-09T05:51:21;99205.66;;;15.12;73.72
61742;BME280;47650;49.848;9.620;2022-09-09T05:53:48;99190.00;;;15.09;73.55
61742;BME280;47650;49.848;9.620;2022-09-09T05:56:17;99202.69;;;15.37;73.55
61742;BME280;47650;49.848;9.620;2022-09-09T05:58:49;99223.81;;;15.68;73.65
61742;BME280;47650;49.848;9.620;2022-09-09T06:01:23;99224.28;;;15.72;72.38
61742;BME280;47650;49.848;9.620;2022-09-09T06:03:55;99225.47;;;15.84;72.00
61742;BME280;47650;49.848;9.620;2022-09-09T06:06:23;99229.09;;;15.76;71.91
61742;BME280;47650;49.848;9.620;2022-09-09T06:08:52;99235.50;;;16.19;72.52
61742;BME280;47650;49.848;9.620;2022-09-09T06:11:22;99238.81;;;16.42;72.78
61742;BME280;47650;49.848;9.620;2022-09-09T06:13:49;99227.63;;;16.60;72.18
61742;BME280;47650;49.848;9.620;2022-09-09T06:16:17;99234.97;;;16.80;71.56
61742;BME280;47650;49.848;9.620;2022-09-09T06:18:43;99205.50;;;16.80;71.20
61742;BME280;47650;49.848;9.620;2022-09-09T06:21:16;99226.59;;;17.18;70.76
61742;BME280;47650;49.848;9.620;2022-09-09T06:23:41;99226.66;;;17.31;69.94
61742;BME280;47650;49.848;9.620;2022-09-09T06:26:21;99226.91;;;17.36;69.11
61742;BME280;47650;49.848;9.620;2022-09-09T06:28:49;99226.66;;;17.31;68.31
61742;BME280;47650;49.848;9.620;2022-09-09T06:31:16;99234.09;;;17.29;68.50
61742;BME280;47650;49.848;9.620;2022-09-09T06:33:48;99227.63;;;17.17;68.00
61742;BME280;47650;49.848;9.620;2022-09-09T06:36:19;99236.09;;;16.85;68.18
61742;BME280;47650;49.848;9.620;2022-09-09T06:38:45;99230.13;;;16.90;69.34
61742;BME280;47650;49.848;9.620;2022-09-09T06:41:15;99231.16;;;16.89;69.54
61742;BME280;47650;49.848;9.620;2022-09-09T06:43:41;99227.53;;;17.03;69.40
61742;BME280;47650;49.848;9.620;2022-09-09T06:46:21;99237.63;;;17.01;69.41
61742;BME280;47650;49.848;9.620;2022-09-09T06:48:52;99231.16;;;17.24;69.62
61742;BME280;47650;49.848;9.620;2022-09-09T06:51:21;99233.31;;;17.42;69.05
61742;BME280;47650;49.848;9.620;2022-09-09T06:53:50;99230.34;;;17.65;68.38
61742;BME280;47650;49.848;9.620;2022-09-09T06:58:42;99216.22;;;17.91;67.16
61742;BME280;47650;49.848;9.620;2022-09-09T07:01:13;99226.88;;;17.84;67.57
61742;BME280;47650;49.848;9.620;2022-09-09T07:03:39;99229.44;;;18.06;66.40
61742;BME280;47650;49.848;9.620;2022-09-09T07:06:06;99224.09;;;18.19;64.38
61742;BME280;47650;49.848;9.620;2022-09-09T07:08:39;99216.84;;;18.00;63.59
61742;BME280;47650;49.848;9.620;2022-09-09T07:11:07;99190.22;;;18.18;63.08
61742;BME280;47650;49.848;9.620;2022-09-09T07:13:33;99228.03;;;18.30;62.96
61742;BME280;47650;49.848;9.620;2022-09-09T07:16:12;99231.53;;;18.44;61.79
61742;BME280;47650;49.848;9.620;2022-09-09T07:18:39;99223.91;;;18.68;61.63
61742;BME280;47650;49.848;9.620;2022-09-09T07:21:04;99224.09;;;18.26;62.02
61742;BME280;47650;49.848;9.620;2022-09-09T07:23:30;99223.91;;;18.54;61.55
61742;BME280;47650;49.848;9.620;2022-09-09T07:25:57;99224.72;;;18.75;61.27
61742;BME280;47650;49.848;9.620;2022-09-09T07:28:23;99207.72;;;19.28;59.82
61742;BME280;47650;49.848;9.620;2022-09-09T07:31:00;99172.59;;;19.68;58.39
61742;BME280;47650;49.848;9.620;2022-09-09T07:33:30;99213.03;;;20.25;56.38
61742;BME280;47650;49.848;9.620;2022-09-09T07:36:06;99212.59;;;20.53;56.06
61742;BME280;47650;49.848;9.620;2022-09-09T07:38:38;99221.97;;;20.19;56.34
61742;BME280;47650;49.848;9.620;2022-09-09T07:41:10;99216.28;;;20.59;54.81
61742;BME280;47650;49.848;9.620;2022-09-09T07:43:43;99225.63;;;20.56;55.90
61742;BME280;47650;49.848;9.620;2022-09-09T07:46:10;99223.09;;;20.61;55.27
61742;BME280;47650;49.848;9.620;2022-09-09T07:48:37;99206.00;;;20.74;55.43
61742;BME280;47650;49.848;9.620;2022-09-09T07:51:15;99223.47;;;20.40;56.12
61742;BME280;47650;49.848;9.620;2022-09-09T07:53:43;99221.19;;;20.69;55.34
61742;BME280;47650;49.848;9.620;2022-09-09T07:56:11;99228.31;;;20.63;56.30
61742;BME280;47650;49.848;9.620;2022-09-09T07:58:38;99223.75;;;21.26;54.36
61742;BME280;47650;49.848;9.620;2022-09-09T08:01:14;99226.13;;;21.71;52.98
61742;BME280;47650;49.848;9.620;2022-09-09T08:03:41;99236.03;;;21.21;53.80
61742;BME280;47650;49.848;9.620;2022-09-09T08:06:08;99239.06;;;20.31;56.54
61742;BME280;47650;49.848;9.620;2022-09-09T08:08:38;99238.31;;;20.99;54.28
61742;BME280;47650;49.848;9.620;2022-09-09T08:11:12;99233.53;;;21.01;54.61
61742;BME280;47650;49.848;9.620;2022-09-09T08:13:40;99235.28;;;21.33;53.96
61742;BME280;47650;49.848;9.620;2022-09-09T08:16:11;99236.50;;;21.55;53.27
61742;BME280;47650;49.848;9.620;2022-09-09T08:18:37;99231.50;;;21.89;52.35
61742;BME280;47650;49.848;9.620;2022-09-09T08:21:14;99229.66;;;22.02;51.21
61742;BME280;47650;49.848;9.620;2022-09-09T08:23:43;99245.53;;;21.61;52.39
61742;BME280;47650;49.848;9.620;2022-09-09T08:26:17;99254.41;;;20.88;54.59
61742;BME280;47650;49.848;9.620;2022-09-09T08:28:44;99248.44;;;21.22;53.94
61742;BME280;47650;49.848;9.620;2022-09-09T08:31:14;99244.28;;;21.27;53.07
61742;BME280;47650;49.848;9.620;2022-09-09T08:33:40;99232.59;;;21.70;52.01
61742;BME280;47650;49.848;9.620;2022-09-09T08:36:09;99220.66;;;22.50;50.51
61742;BME280;47650;49.848;9.620;2022-09-09T08:38:36;99236.59;;;22.40;50.18
61742;BME280;47650;49.848;9.620;2022-09-09T08:41:39;99239.72;;;23.26;47.96
61742;BME280;47650;49.848;9.620;2022-09-09T08:49:57;99237.69;;;22.62;50.05
61742;BME280;47650;49.848;9.620;2022-09-09T08:52:36;99230.50;;;23.51;46.23
61742;BME280;47650;49.848;9.620;2022-09-09T08:58:08;99240.94;;;24.45;44.97
61742;BME280;47650;49.848;9.620;2022-09-09T09:00:44;99246.53;;;24.38;43.90
61742;BME280;47650;49.848;9.620;2022-09-09T09:03:27;99223.44;;;26.46;39.39
61742;BME280;47650;49.848;9.620;2022-09-09T09:06:13;99231.50;;;26.09;39.37
61742;BME280;47650;49.848;9.620;2022-09-09T09:11:26;99199.81;;;26.85;37.94
61742;BME280;47650;49.848;9.620;2022-09-09T09:14:02;99202.66;;;26.35;38.28
61742;BME280;47650;49.848;9.620;2022-09-09T09:16:41;99227.06;;;25.76;40.67
61742;BME280;47650;49.848;9.620;2022-09-09T09:19:13;99226.13;;;25.04;41.22
61742;BME280;47650;49.848;9.620;2022-09-09T09:22:16;99237.59;;;24.09;43.23
61742;BME280;47650;49.848;9.620;2022-09-09T09:27:21;99212.72;;;27.05;36.85
61742;BME280;47650;49.848;9.620;2022-09-09T09:29:48;99197.53;;;29.05;33.94
61742;BME280;47650;49.848;9.620;2022-09-09T09:32:18;99212.69;;;27.57;35.71
61742;BME280;47650;49.848;9.620;2022-09-09T09:34:51;99199.16;;;27.20;36.12
61742;BME280;47650;49.848;9.620;2022-09-09T09:37:26;99220.06;;;26.34;37.24
61742;BME280;47650;49.848;9.620;2022-09-09T09:39:53;99208.16;;;25.86;38.24
61742;BME280;47650;49.848;9.620;2022-09-09T09:42:19;99210.34;;;25.62;39.17
61742;BME280;47650;49.848;9.620;2022-09-09T09:44:45;99199.38;;;24.39;42.12
61742;BME280;47650;49.848;9.620;2022-09-09T09:47:16;99206.00;;;24.61;42.03
61742;BME280;47650;49.848;9.620;2022-09-09T09:49:58;99204.25;;;23.92;43.29
61742;BME280;47650;49.848;9.620;2022-09-09T09:52:26;99202.94;;;23.13;44.49
61742;BME280;47650;49.848;9.620;2022-09-09T09:54:54;99183.56;;;23.57;43.94
61742;BME280;47650;49.848;9.620;2022-09-09T09:57:28;99206.22;;;23.03;44.34
61742;BME280;47650;49.848;9.620;2022-09-09T10:00:04;99211.00;;;22.30;46.21
61742;BME280;47650;49.848;9.620;2022-09-09T10:02:39;99201.53;;;22.51;45.83
61742;BME280;47650;49.848;9.620;2022-09-09T10:05:13;99222.53;;;21.77;47.04
61742;BME280;47650;49.848;9.620;2022-09-09T10:07:40;99186.81;;;20.89;48.41
61742;BME280;47650;49.848;9.620;2022-09-09T10:10:17;99233.25;;;21.10;49.24
61742;BME280;47650;49.848;9.620;2022-09-09T10:13:00;99256.28;;;20.30;51.73
61742;BME280;47650;49.848;9.620;2022-09-09T10:15:53;99261.88;;;19.31;58.02
61742;BME280;47650;49.848;9.620;2022-09-09T10:18:36;99264.78;;;18.30;64.54
61742;BME280;47650;49.848;9.620;2022-09-09T10:24:31;99255.50;;;18.52;64.03
61742;BME280;47650;49.848;9.620;2022-09-09T10:29:20;99257.16;;;18.47;61.96
61742;BME280;47650;49.848;9.620;2022-09-09T10:37:41;99213.31;;;19.71;57.54
61742;BME280;47650;49.848;9.620;2022-09-09T10:40:47;99250.19;;;20.09;58.18
61742;BME280;47650;49.848;9.620;2022-09-09T10:51:37;99214.75;;;28.13;36.64
61742;BME280;47650;49.848;9.620;2022-09-09T10:54:19;99193.44;;;29.03;34.13
61742;BME280;47650;49.848;9.620;2022-09-09T10:56:52;99187.63;;;31.37;30.19
61742;BME280;47650;49.848;9.620;2022-09-09T10:59:26;99194.88;;;31.52;27.67
61742;BME280;47650;49.848;9.620;2022-09-09T11:02:21;99198.28;;;30.26;28.81
61742;BME280;47650;49.848;9.620;2022-09-09T11:05:04;99168.63;;;31.45;27.99
61742;BME280;47650;49.848;9.620;2022-09-09T11:07:40;99161.19;;;31.89;27.59
61742;BME280;47650;49.848;9.620;2022-09-09T11:10:37;99176.72;;;32.92;26.19
61742;BME280;47650;49.848;9.620;2022-09-09T11:13:10;99177.31;;;32.61;27.10
61742;BME280;47650;49.848;9.620;2022-09-09T11:15:44;99178.28;;;33.40;26.09
61742;BME280;47650;49.848;9.620;2022-09-09T11:18:13;99173.22;;;34.29;24.73
61742;BME280;47650;49.848;9.620;2022-09-09T11:20:42;99168.56;;;34.16;24.26
61742;BME280;47650;49.848;9.620;2022-09-09T11:23:13;99168.06;;;35.30;23.72
61742;BME280;47650;49.848;9.620;2022-09-09T11:25:55;99180.00;;;31.34;28.79
61742;BME280;47650;49.848;9.620;2022-09-09T11:28:28;99199.56;;;27.39;35.47
61742;BME280;47650;49.848;9.620;2022-09-09T11:40:16;99195.94;;;24.44;42.14
61742;BME280;47650;49.848;9.620;2022-09-09T11:42:42;99182.94;;;23.95;44.10
61742;BME280;47650;49.848;9.620;2022-09-09T11:45:23;99192.84;;;23.08;46.48
61742;BME280;47650;49.848;9.620;2022-09-09T11:47:58;99201.25;;;22.29;49.96
61742;BME280;47650;49.848;9.620;2022-09-09T11:50:28;99183.22;;;22.23;47.82
61742;BME280;47650;49.848;9.620;2022-09-09T11:53:14;99175.31;;;26.85;39.39
61742;BME280;47650;49.848;9.620;2022-09-09T11:55:41;99180.78;;;27.48;37.43
61742;BME280;47650;49.848;9.620;2022-09-09T12:00:40;99185.66;;;26.82;36.59
61742;BME280;47650;49.848;9.620;2022-09-09T12:03:41;99178.50;;;28.18;33.71
61742;BME280;47650;49.848;9.620;2022-09-09T12:06:17;99133.03;;;28.03;31.41
61742;BME280;47650;49.848;9.620;2022-09-09T12:08:48;99167.06;;;28.31;31.79
61742;BME280;47650;49.848;9.620;2022-09-09T12:11:28;99163.19;;;30.09;30.07
61742;BME280;47650;49.848;9.620;2022-09-09T12:13:56;99164.63;;;32.33;25.53
61742;BME280;47650;49.848;9.620;2022-09-09T12:16:35;99155.25;;;32.34;24.91
61742;BME280;47650;49.848;9.620;2022-09-09T12:19:19;99167.41;;;30.84;25.68
61742;BME280;47650;49.848;9.620;2022-09-09T12:22:07;99169.44;;;30.10;26.06
61742;BME280;47650;49.848;9.620;2022-09-09T12:24:43;99145.56;;;33.52;22.29
61742;BME280;47650;49.848;9.620;2022-09-09T12:27:24;99157.75;;;32.49;23.24
61742;BME280;47650;49.848;9.620;2022-09-09T12:30:14;99138.50;;;32.35;24.84
61742;BME280;47650;49.848;9.620;2022-09-09T12:32:40;99142.63;;;31.43;24.39
61742;BME280;47650;49.848;9.620;2022-09-09T12:35:10;99143.03;;;30.29;26.07
61742;BME280;47650;49.848;9.620;2022-09-09T12:40:25;99142.88;;;30.50;26.25
61742;BME280;47650;49.848;9.620;2022-09-09T12:42:51;99138.66;;;31.92;24.82
61742;BME280;47650;49.848;9.620;2022-09-09T12:47:55;99138.94;;;30.61;24.76
61742;BME280;47650;49.848;9.620;2022-09-09T12:50:24;99122.09;;;30.19;24.85
61742;BME280;47650;49.848;9.620;2022-09-09T12:52:58;99147.56;;;29.05;26.31
61742;BME280;47650;49.848;9.620;2022-09-09T12:55:28;99105.66;;;30.49;24.67
61742;BME280;47650;49.848;9.620;2022-09-09T12:57:56;99127.78;;;27.86;28.32
61742;BME280;47650;49.848;9.620;2022-09-09T13:00:24;99115.38;;;30.36;25.52
61742;BME280;47650;49.848;9.620;2022-09-09T13:03:20;99119.66;;;30.47;24.70
61742;BME280;47650;49.848;9.620;2022-09-09T13:05:46;99114.13;;;31.44;24.11
61742;BME280;47650;49.848;9.620;2022-09-09T13:08:13;99121.69;;;30.61;25.11
61742;BME280;47650;49.848;9.620;2022-09-09T13:13:27;99115.84;;;29.69;26.62
61742;BME280;47650;49.848;9.620;2022-09-09T13:15:58;99108.63;;;28.84;27.64
61742;BME280;47650;49.848;9.620;2022-09-09T13:18:39;99083.28;;;29.43;27.26
61742;BME280;47650;49.848;9.620;2022-09-09T13:21:08;99094.72;;;33.27;22.32
61742;BME280;47650;49.848;9.620;2022-09-09T13:23:36;99083.63;;;33.69;20.90
61742;BME280;47650;49.848;9.620;2022-09-09T13:26:05;99066.78;;;32.56;22.43
61742;BME280;47650;49.848;9.620;2022-09-09T13:28:32;99078.28;;;32.86;22.87
61742;BME280;47650;49.848;9.620;2022-09-09T13:31:05;99086.41;;;30.83;24.97
61742;BME280;47650;49.848;9.620;2022-09-09T13:33:37;99099.97;;;28.51;28.79
61742;BME280;47650;49.848;9.620;2022-09-09T13:36:08;99090.16;;;29.80;26.75
61742;BME280;47650;49.848;9.620;2022-09-09T13:38:55;99084.09;;;31.58;24.06
61742;BME280;47650;49.848;9.620;2022-09-09T13:41:22;99085.19;;;28.83;27.58
61742;BME280;47650;49.848;9.620;2022-09-09T13:43:51;99103.81;;;26.84;30.95
61742;BME280;47650;49.848;9.620;2022-09-09T13:46:39;99103.72;;;26.69;32.08
61742;BME280;47650;49.848;9.620;2022-09-09T13:51:39;99113.38;;;25.08;35.14
61742;BME280;47650;49.848;9.620;2022-09-09T13:54:09;99109.63;;;25.14;34.29
61742;BME280;47650;49.848;9.620;2022-09-09T13:56:38;99015.72;;;24.42;34.65
61742;BME280;47650;49.848;9.620;2022-09-09T13:59:05;99111.06;;;24.38;35.32
61742;BME280;47650;49.848;9.620;2022-09-09T14:01:31;99119.13;;;23.01;38.05
61742;BME280;47650;49.848;9.620;2022-09-09T14:03:56;99128.53;;;23.39;38.12
61742;BME280;47650;49.848;9.620;2022-09-09T14:06:23;99091.38;;;23.46;37.37
61742;BME280;47650;49.848;9.620;2022-09-09T14:08:50;99123.72;;;22.89;38.40
61742;BME280;47650;49.848;9.620;2022-09-09T14:11:16;99148.31;;;22.76;39.49
61742;BME280;47650;49.848;9.620;2022-09-09T14:13:41;99165.06;;;21.88;44.89
61742;BME280;47650;49.848;9.620;2022-09-09T14:16:07;99156.31;;;17.77;65.43
61742;BME280;47650;49.848;9.620;2022-09-09T14:18:32;99189.06;;;16.05;76.97
61742;BME280;47650;49.848;9.620;2022-09-09T14:20:59;99204.22;;;16.19;78.58
61742;BME280;47650;49.848;9.620;2022-09-09T14:23:31;99208.34;;;16.43;82.98
61742;BME280;47650;49.848;9.620;2022-09-09T14:25:58;99206.00;;;16.12;82.92
61742;BME280;47650;49.848;9.620;2022-09-09T14:28:23;99205.88;;;16.70;85.11
61742;BME280;47650;49.848;9.620;2022-09-09T14:30:50;99208.63;;;16.83;85.70
61742;BME280;47650;49.848;9.620;2022-09-09T14:33:16;99191.97;;;17.71;85.13
61742;BME280;47650;49.848;9.620;2022-09-09T14:35:44;99185.56;;;17.10;79.49
61742;BME280;47650;49.848;9.620;2022-09-09T14:38:09;99195.19;;;18.15;83.26
61742;BME280;47650;49.848;9.620;2022-09-09T14:40:36;99174.97;;;18.66;83.96
61742;BME280;47650;49.848;9.620;2022-09-09T14:43:02;99187.25;;;19.20;83.83
61742;BME280;47650;49.848;9.620;2022-09-09T14:45:28;99178.84;;;19.55;84.40
61742;BME280;47650;49.848;9.620;2022-09-09T14:47:56;99179.13;;;19.85;82.43
61742;BME280;47650;49.848;9.620;2022-09-09T14:50:22;99169.97;;;20.25;82.37
61742;BME280;47650;49.848;9.620;2022-09-09T14:52:48;99165.41;;;20.51;82.80
61742;BME280;47650;49.848;9.620;2022-09-09T14:55:14;99133.25;;;20.56;83.74